createdAt,value
2022-08-04T00:02:21.667Z,22.00
2022-08-04T00:05:44.085Z,22.10
2022-08-04T00:08:55.640Z,22.00
2022-08-04T00:12:01.401Z,22.10
2022-08-04T00:15:06.376Z,22.10
2022-08-04T00:18:09.941Z,22.10
2022-08-04T00:21:19.254Z,22.10
2022-08-04T00:24:22.467Z,22.10
2022-08-04T00:27:24.841Z,22.10
2022-08-04T00:30:28.186Z,21.90
2022-08-04T00:33:30.795Z,22.00
2022-08-04T00:36:34.526Z,22.00
2022-08-04T00:39:37.869Z,22.10
2022-08-04T00:42:59.620Z,22.00
2022-08-04T00:46:35.714Z,22.10
2022-08-04T00:50:05.680Z,22.10
2022-08-04T00:53:09.601Z,22.00
2022-08-04T00:56:36.211Z,22.00
2022-08-04T00:59:47.214Z,22.00
2022-08-04T01:03:10.892Z,22.00
2022-08-04T01:06:25.201Z,21.90
2022-08-04T01:09:40.120Z,21.80
2022-08-04T01:12:56.511Z,21.90
2022-08-04T01:16:07.835Z,21.90
2022-08-04T01:19:22.706Z,21.80
2022-08-04T01:22:33.937Z,22.00
2022-08-04T01:26:42.819Z,21.80
2022-08-04T01:29:55.839Z,21.70
2022-08-04T01:33:08.591Z,21.80
2022-08-04T01:36:13.135Z,21.80
2022-08-04T01:39:34.422Z,21.90
2022-08-04T01:42:37.569Z,21.80
2022-08-04T01:45:41.755Z,21.80
2022-08-04T01:48:47.690Z,21.80
2022-08-04T01:51:53.778Z,21.80
2022-08-04T01:54:56.805Z,21.80
2022-08-04T01:58:01.157Z,21.80
2022-08-04T02:01:08.739Z,21.80
2022-08-04T02:04:23.109Z,21.80
2022-08-04T02:07:25.776Z,22.00
2022-08-04T02:10:38.416Z,22.00
2022-08-04T02:14:03.420Z,22.00
2022-08-04T02:17:12.044Z,22.00
2022-08-04T02:20:29.104Z,22.10
2022-08-04T02:23:39.295Z,22.10
2022-08-04T02:26:44.345Z,22.00
2022-08-04T02:30:00.381Z,21.90
2022-08-04T02:33:07.903Z,22.00
2022-08-04T02:36:16.842Z,22.00
2022-08-04T02:39:21.518Z,22.00
2022-08-04T02:42:24.952Z,22.00
2022-08-04T02:45:29.085Z,22.00
2022-08-04T02:48:34.928Z,22.10
2022-08-04T02:51:52.599Z,22.10
2022-08-04T02:55:00.087Z,22.10
2022-08-04T02:58:04.599Z,22.10
2022-08-04T03:01:07.263Z,22.00
2022-08-04T03:04:25.124Z,22.00
2022-08-04T03:08:00.021Z,22.00
2022-08-04T03:11:26.968Z,22.00
2022-08-04T03:14:51.087Z,21.90
2022-08-04T03:18:11.805Z,21.80
2022-08-04T03:21:22.851Z,21.80
2022-08-04T03:25:06.469Z,21.70
2022-08-04T03:28:49.745Z,21.70
2022-08-04T03:32:30.918Z,21.70
2022-08-04T03:36:00.647Z,21.80
2022-08-04T03:39:24.056Z,21.80
2022-08-04T03:42:44.320Z,21.80
2022-08-04T03:46:09.318Z,21.80
2022-08-04T03:49:55.904Z,21.80
2022-08-04T03:53:15.845Z,21.80
2022-08-04T03:56:54.748Z,21.70
2022-08-04T04:00:08.912Z,21.80
2022-08-04T04:03:51.905Z,21.80
2022-08-04T04:07:29.876Z,21.80
2022-08-04T04:10:57.747Z,21.80
2022-08-04T04:14:26.360Z,21.70
2022-08-04T04:17:40.447Z,21.70
2022-08-04T04:20:51.585Z,21.70
2022-08-04T04:24:32.715Z,21.70
2022-08-04T04:28:45.054Z,21.70
2022-08-04T04:31:49.083Z,21.70
2022-08-04T04:35:14.644Z,21.60
2022-08-04T04:38:29.028Z,21.50
2022-08-04T04:41:58.704Z,21.60
2022-08-04T04:45:30.013Z,21.70
2022-08-04T04:48:38.328Z,21.70
2022-08-04T04:52:09.449Z,21.60
2022-08-04T04:55:30.536Z,21.70
2022-08-04T04:58:36.219Z,21.70
2022-08-04T05:01:44.418Z,21.70
2022-08-04T05:04:59.001Z,21.90
2022-08-04T05:08:44.454Z,21.80
2022-08-04T05:11:46.306Z,21.90
2022-08-04T05:14:50.737Z,21.90
2022-08-04T05:17:57.129Z,22.00
2022-08-04T05:21:24.870Z,22.00
2022-08-04T05:24:29.775Z,21.90
2022-08-04T05:27:58.965Z,22.00
2022-08-04T05:31:05.619Z,21.90
2022-08-04T05:34:20.417Z,21.80
2022-08-04T05:37:24.026Z,21.80
2022-08-04T05:40:31.276Z,21.70
2022-08-04T05:43:34.859Z,21.60
2022-08-04T05:46:38.172Z,21.60
2022-08-04T05:49:41.883Z,21.60
2022-08-04T05:52:45.201Z,21.60
2022-08-04T05:55:58.471Z,21.70
2022-08-04T05:59:05.973Z,21.60
2022-08-04T06:02:10.725Z,21.60
2022-08-04T06:05:15.938Z,21.70
2022-08-04T06:08:18.318Z,21.70
2022-08-04T06:11:23.187Z,21.60
2022-08-04T06:14:26.540Z,21.60
2022-08-04T06:18:35.285Z,21.70
2022-08-04T06:21:04.762Z,21.80
2022-08-04T06:24:23.856Z,21.90
2022-08-04T06:27:29.035Z,21.90
2022-08-04T06:30:33.993Z,22.00
2022-08-04T06:33:54.501Z,22.00
2022-08-04T06:36:59.590Z,21.90
2022-08-04T06:40:29.332Z,21.90
2022-08-04T06:43:32.466Z,21.90
2022-08-04T06:46:45.407Z,21.90
2022-08-04T06:51:26.757Z,21.90
2022-08-04T06:53:12.604Z,22.00
2022-08-04T06:56:18.208Z,22.10
2022-08-04T06:59:22.523Z,22.20
2022-08-04T07:02:30.087Z,22.10
2022-08-04T07:05:34.088Z,21.90
2022-08-04T07:08:37.278Z,22.00
2022-08-04T07:11:44.330Z,22.10
2022-08-04T07:14:47.812Z,22.00
2022-08-04T07:17:52.844Z,22.10
2022-08-04T07:20:55.484Z,22.10
2022-08-04T07:23:57.680Z,22.10
2022-08-04T07:27:02.007Z,22.30
2022-08-04T07:30:06.600Z,22.30
2022-08-04T07:33:09.176Z,22.50
2022-08-04T07:36:12.490Z,22.50
2022-08-04T07:39:21.864Z,22.60
2022-08-04T07:42:32.314Z,22.60
2022-08-04T07:45:34.907Z,22.70
2022-08-04T07:48:37.105Z,22.70
2022-08-04T07:51:41.770Z,22.70
2022-08-04T07:54:45.973Z,22.70
2022-08-04T07:57:48.616Z,22.80
2022-08-04T08:00:54.538Z,22.80
2022-08-04T08:03:58.954Z,22.80
2022-08-04T08:07:01.333Z,22.70
2022-08-04T08:10:03.742Z,22.70
2022-08-04T08:13:07.755Z,22.80
2022-08-04T08:16:11.049Z,22.80
2022-08-04T08:19:14.515Z,22.80
2022-08-04T08:22:16.788Z,22.80
2022-08-04T08:25:19.509Z,22.90
2022-08-04T08:28:23.482Z,22.90
2022-08-04T08:31:55.342Z,22.80
2022-08-04T08:34:48.889Z,22.90
2022-08-04T08:37:58.708Z,22.90
2022-08-04T08:41:51.898Z,23.00
2022-08-04T08:45:21.283Z,23.20
2022-08-04T08:49:00.468Z,23.10
2022-08-04T08:52:15.225Z,23.10
2022-08-04T08:55:54.430Z,22.90
2022-08-04T08:59:33.889Z,23.00
2022-08-04T09:03:04.060Z,23.10
2022-08-04T09:06:45.289Z,23.30
2022-08-04T09:09:47.865Z,23.50
2022-08-04T09:13:13.630Z,23.50
2022-08-04T09:16:31.219Z,23.70
2022-08-04T09:19:50.171Z,23.80
2022-08-04T09:23:11.185Z,23.90
2022-08-04T09:26:21.855Z,24.10
2022-08-04T09:29:48.025Z,24.00
2022-08-04T09:33:02.311Z,24.10
2022-08-04T09:36:41.512Z,24.20
2022-08-04T09:40:29.221Z,24.40
2022-08-04T09:43:59.345Z,24.40
2022-08-04T09:47:39.426Z,24.60
2022-08-04T09:50:50.310Z,24.70
2022-08-04T09:54:09.645Z,24.50
2022-08-04T09:57:43.622Z,24.40
2022-08-04T10:00:52.850Z,24.60
2022-08-04T10:04:08.351Z,24.80
2022-08-04T10:07:31.219Z,25.00
2022-08-04T10:10:56.834Z,25.00
2022-08-04T10:14:07.731Z,25.00
2022-08-04T10:17:30.596Z,24.90
2022-08-04T10:21:15.028Z,24.90
2022-08-04T10:24:37.171Z,25.00
2022-08-04T10:27:56.253Z,25.10
2022-08-04T10:31:05.078Z,25.20
2022-08-04T10:34:28.584Z,25.40
2022-08-04T10:38:01.291Z,25.60
2022-08-04T10:41:17.479Z,25.60
2022-08-04T10:44:42.414Z,25.50
2022-08-04T10:48:06.126Z,25.70
2022-08-04T10:51:58.489Z,25.60
2022-08-04T10:55:04.256Z,25.70
2022-08-04T10:58:10.133Z,25.70
2022-08-04T11:02:01.740Z,25.70
2022-08-04T11:04:53.947Z,25.80
2022-08-04T11:08:13.625Z,26.00
2022-08-04T11:12:00.721Z,26.20
2022-08-04T11:15:13.772Z,26.40
2022-08-04T11:18:23.991Z,26.40
2022-08-04T11:21:32.466Z,26.20
2022-08-04T11:25:02.431Z,26.40
2022-08-04T11:28:26.834Z,26.60
2022-08-04T11:31:35.706Z,26.60
2022-08-04T11:34:42.714Z,26.80
2022-08-04T11:38:21.315Z,26.90
2022-08-04T11:41:38.354Z,27.10
2022-08-04T11:44:48.242Z,27.10
2022-08-04T11:48:06.342Z,27.40
2022-08-04T11:51:12.373Z,27.30
2022-08-04T11:54:16.188Z,27.40
2022-08-04T11:57:19.851Z,27.60
2022-08-04T12:00:25.454Z,27.50
2022-08-04T12:04:04.035Z,27.40
2022-08-04T12:07:49.363Z,27.30
2022-08-04T12:11:05.013Z,27.40
2022-08-04T12:14:28.140Z,27.30
2022-08-04T12:17:52.320Z,27.40
2022-08-04T12:21:01.295Z,27.30
2022-08-04T12:24:33.265Z,27.30
2022-08-04T12:27:59.650Z,27.40
2022-08-04T12:31:12.621Z,27.40
2022-08-04T12:34:24.050Z,27.40
2022-08-04T12:37:35.298Z,27.30
2022-08-04T12:40:45.233Z,27.00
2022-08-04T12:43:47.766Z,27.30
2022-08-04T12:46:50.567Z,27.30
2022-08-04T12:50:00.725Z,27.10
2022-08-04T12:53:12.759Z,27.20
2022-08-04T12:56:28.698Z,27.40
2022-08-04T12:59:37.780Z,27.50
2022-08-04T13:02:46.359Z,27.60
2022-08-04T13:05:53.087Z,27.70
2022-08-04T13:08:56.880Z,27.70
2022-08-04T13:12:06.403Z,27.80
2022-08-04T13:15:17.572Z,28.00
2022-08-04T13:18:24.983Z,28.30
2022-08-04T13:21:50.381Z,28.50
2022-08-04T13:26:40.820Z,28.60
2022-08-04T13:28:26.767Z,28.60
2022-08-04T13:31:35.934Z,28.60
2022-08-04T13:34:49.509Z,28.60
2022-08-04T13:37:57.501Z,28.70
2022-08-04T13:41:05.986Z,28.60
2022-08-04T13:44:19.607Z,28.50
2022-08-04T13:47:34.311Z,28.30
2022-08-04T13:50:38.453Z,28.10
2022-08-04T13:53:45.338Z,27.80
2022-08-04T13:56:53.529Z,27.60
2022-08-04T14:00:06.383Z,27.40
2022-08-04T14:03:19.082Z,27.40
2022-08-04T14:06:29.140Z,27.30
2022-08-04T14:09:35.944Z,27.30
2022-08-04T14:12:47.219Z,27.40
2022-08-04T14:16:01.022Z,27.40
2022-08-04T14:19:06.229Z,27.30
2022-08-04T14:22:27.825Z,27.30
2022-08-04T14:25:30.425Z,27.40
2022-08-04T14:29:25.057Z,27.30
2022-08-04T14:32:12.767Z,27.40
2022-08-04T14:35:16.745Z,27.40
2022-08-04T14:38:20.413Z,27.50
2022-08-04T14:41:32.804Z,27.40
2022-08-04T14:44:53.899Z,27.40
2022-08-04T14:47:56.166Z,27.30
2022-08-04T14:50:58.723Z,27.40
2022-08-04T14:54:05.013Z,27.40
2022-08-04T14:57:16.556Z,27.40
2022-08-04T15:00:31.245Z,27.40
2022-08-04T15:03:33.683Z,27.40
2022-08-04T15:06:36.320Z,27.40
2022-08-04T15:09:38.487Z,27.40
2022-08-04T15:12:40.992Z,27.50
2022-08-04T15:15:43.918Z,27.40
2022-08-04T15:19:09.656Z,27.40
2022-08-04T15:22:17.450Z,27.30
2022-08-04T15:25:21.494Z,27.20
2022-08-04T15:28:27.491Z,27.20
2022-08-04T15:32:05.965Z,27.40
2022-08-04T15:35:26.601Z,27.40
2022-08-04T15:38:38.382Z,27.50
2022-08-04T15:42:21.422Z,27.40
2022-08-04T15:46:43.439Z,27.40
2022-08-04T15:48:52.828Z,27.40
2022-08-04T15:52:03.420Z,27.40
2022-08-04T15:55:40.506Z,27.50
2022-08-04T15:58:51.282Z,27.60
2022-08-04T16:02:30.072Z,27.70
2022-08-04T16:05:35.816Z,27.50
2022-08-04T16:08:58.086Z,27.50
2022-08-04T16:12:00.568Z,27.50
2022-08-04T16:15:41.498Z,27.50
2022-08-04T16:18:44.759Z,27.40
2022-08-04T16:21:58.715Z,27.30
2022-08-04T16:25:02.729Z,27.20
2022-08-04T16:28:05.081Z,27.10
2022-08-04T16:31:11.175Z,27.00
2022-08-04T16:34:48.594Z,26.90
2022-08-04T16:37:43.440Z,26.80
2022-08-04T16:41:01.181Z,26.60
2022-08-04T16:44:57.445Z,26.60
2022-08-04T16:48:04.339Z,26.60
2022-08-04T16:51:09.951Z,26.50
2022-08-04T16:54:12.441Z,26.30
2022-08-04T16:57:15.775Z,26.20
2022-08-04T17:00:27.546Z,26.10
2022-08-04T17:03:29.726Z,26.00
2022-08-04T17:06:38.150Z,25.90
2022-08-04T17:09:50.346Z,25.90
2022-08-04T17:13:03.706Z,25.80
2022-08-04T17:16:18.336Z,25.80
2022-08-04T17:19:25.623Z,25.90
2022-08-04T17:22:29.616Z,26.10
2022-08-04T17:25:52.347Z,26.10
2022-08-04T17:28:56.210Z,25.90
2022-08-04T17:31:58.310Z,25.80
2022-08-04T17:35:02.312Z,25.70
2022-08-04T17:38:06.415Z,25.80
2022-08-04T17:41:19.590Z,25.80
2022-08-04T17:44:40.612Z,25.80
2022-08-04T17:47:50.712Z,25.80
2022-08-04T17:50:53.942Z,25.80
2022-08-04T17:54:02.386Z,25.80
2022-08-04T17:57:21.107Z,25.80
2022-08-04T18:00:24.007Z,25.70
2022-08-04T18:03:35.636Z,25.60
2022-08-04T18:06:38.443Z,25.50
2022-08-04T18:10:02.260Z,25.50
2022-08-04T18:13:13.865Z,25.50
2022-08-04T18:19:49.988Z,25.30
2022-08-04T18:22:57.807Z,25.20
2022-08-04T18:26:03.596Z,25.10
2022-08-04T18:29:31.781Z,24.90
2022-08-04T18:32:34.359Z,24.90
2022-08-04T18:36:35.340Z,24.80
2022-08-04T18:39:12.903Z,24.70
2022-08-04T18:42:17.500Z,24.60
2022-08-04T18:45:22.946Z,24.60
2022-08-04T18:48:36.171Z,24.70
2022-08-04T18:51:39.337Z,24.60
2022-08-04T18:54:51.564Z,24.60
2022-08-04T18:58:00.958Z,24.60
2022-08-04T19:01:04.020Z,24.40
2022-08-04T19:04:33.587Z,24.40
2022-08-04T19:08:01.503Z,24.20
2022-08-04T19:11:01.303Z,24.10
2022-08-04T19:14:23.724Z,24.00
2022-08-04T19:17:54.261Z,23.90
2022-08-04T19:20:52.528Z,23.80
2022-08-04T19:24:29.275Z,23.80
2022-08-04T19:27:17.147Z,23.70
2022-08-04T19:30:19.474Z,23.70
2022-08-04T19:33:28.594Z,23.70
2022-08-04T19:36:49.045Z,23.80
2022-08-04T19:39:53.112Z,23.70
2022-08-04T19:43:04.859Z,23.50
2022-08-04T19:46:15.425Z,23.40
2022-08-04T19:50:02.887Z,23.30
2022-08-04T19:52:51.501Z,23.30
2022-08-04T19:55:54.639Z,23.30
2022-08-04T19:58:56.802Z,23.10
2022-08-04T20:01:59.545Z,23.10
2022-08-04T20:05:03.222Z,23.10
2022-08-04T20:08:11.640Z,23.00
2022-08-04T20:11:18.443Z,23.00
2022-08-04T20:14:31.389Z,23.00
2022-08-04T20:18:34.569Z,23.00
2022-08-04T20:21:00.382Z,22.90
2022-08-04T20:24:36.547Z,22.80
2022-08-04T20:27:51.484Z,22.70
2022-08-04T20:30:48.978Z,22.60
2022-08-04T20:33:54.904Z,22.60
2022-08-04T20:36:59.237Z,22.60
2022-08-04T20:40:03.295Z,22.60
2022-08-04T20:43:07.633Z,22.50
2022-08-04T20:46:18.266Z,22.40
2022-08-04T20:49:35.196Z,22.40
2022-08-04T20:52:40.178Z,22.40
2022-08-04T20:55:55.800Z,22.20
2022-08-04T20:59:00.010Z,22.10
2022-08-04T21:02:04.312Z,22.00
2022-08-04T21:05:07.174Z,22.00
2022-08-04T21:08:27.063Z,22.00
2022-08-04T21:11:32.614Z,22.00
2022-08-04T21:14:36.075Z,21.90
2022-08-04T21:17:59.345Z,21.90
2022-08-04T21:21:00.585Z,21.90
2022-08-04T21:24:03.372Z,21.80
2022-08-04T21:27:06.754Z,21.70
2022-08-04T21:30:25.337Z,21.70
2022-08-04T21:33:50.561Z,21.70
2022-08-04T21:36:51.674Z,21.70
2022-08-04T21:39:59.381Z,21.50
2022-08-04T21:43:15.838Z,21.50
2022-08-04T21:46:18.371Z,21.50
2022-08-04T21:49:20.651Z,21.40
2022-08-04T21:52:24.055Z,21.40
2022-08-04T21:56:06.581Z,21.40
2022-08-04T21:58:49.375Z,21.40
2022-08-04T22:01:54.846Z,21.40
2022-08-04T22:04:58.102Z,21.40
2022-08-04T22:08:00.350Z,21.40
2022-08-04T22:11:02.708Z,21.40
2022-08-04T22:14:11.987Z,21.40
2022-08-04T22:17:14.394Z,21.30
2022-08-04T22:20:27.373Z,21.30
2022-08-04T22:23:31.035Z,21.40
2022-08-04T22:26:47.588Z,21.40
2022-08-04T22:29:49.906Z,21.40
2022-08-04T22:32:52.184Z,21.40
2022-08-04T22:35:54.598Z,21.40
2022-08-04T22:39:04.393Z,21.40
2022-08-04T22:42:09.307Z,21.40
2022-08-04T22:45:15.682Z,21.40
2022-08-04T22:48:18.468Z,21.40
2022-08-04T22:51:22.433Z,21.40
2022-08-04T22:54:28.613Z,21.40
2022-08-04T22:57:43.394Z,21.40
2022-08-04T23:00:58.403Z,21.40
2022-08-04T23:04:02.004Z,21.40
2022-08-04T23:07:09.134Z,21.40
2022-08-04T23:10:13.390Z,21.40
2022-08-04T23:13:16.029Z,21.30
2022-08-04T23:16:20.487Z,21.30
2022-08-04T23:19:30.106Z,21.30
2022-08-04T23:22:41.993Z,21.30
2022-08-04T23:26:07.295Z,21.30
2022-08-04T23:29:08.150Z,21.30
2022-08-04T23:32:10.285Z,21.30
2022-08-04T23:35:15.404Z,21.20
2022-08-04T23:38:31.048Z,21.20
2022-08-04T23:41:53.553Z,21.20
2022-08-04T23:44:57.609Z,21.20
2022-08-04T23:48:18.353Z,21.10
2022-08-04T23:51:23.266Z,21.20
2022-08-04T23:54:25.854Z,21.20
2022-08-04T23:57:31.358Z,21.20
